sensor_id;sensor_type;location;lat;lon;timestamp;P1;durP1;ratioP1;P2;durP2;ratioP2
8413;SDS011;4244;48.684;9.028;2023-03-01T00:00:52;17.37;;;15.10;;
8413;SDS011;4244;48.684;9.028;2023-03-01T00:03:18;17.93;;;14.90;;
8413;SDS011;4244;48.684;9.028;2023-03-01T00:05:44;19.60;;;15.77;;
8413;SDS011;4244;48.684;9.028;2023-03-01T00:08:11;17.60;;;14.80;;
8413;SDS011;4244;48.684;9.028;2023-03-01T00:10:36;20.30;;;15.37;;
8413;SDS011;4244;48.684;9.028;2023-03-01T00:13:02;17.20;;;14.50;;
8413;SDS011;4244;48.684;9.028;2023-03-01T00:15:30;17.43;;;15.10;;
8413;SDS011;4244;48.684;9.028;2023-03-01T00:17:56;17.40;;;15.50;;
8413;SDS011;4244;48.684;9.028;2023-03-01T00:20:22;18.20;;;15.20;;
8413;SDS011;4244;48.684;9.028;2023-03-01T00:22:48;18.87;;;15.43;;
8413;SDS011;4244;48.684;9.028;2023-03-01T00:25:13;17.60;;;15.20;;
8413;SDS011;4244;48.684;9.028;2023-03-01T00:27:39;18.30;;;15.07;;
8413;SDS011;4244;48.684;9.028;2023-03-01T00:30:05;17.70;;;14.50;;
8413;SDS011;4244;48.684;9.028;2023-03-01T00:32:31;18.30;;;14.60;;
8413;SDS011;4244;48.684;9.028;2023-03-01T00:34:56;17.93;;;16.03;;
8413;SDS011;4244;48.684;9.028;2023-03-01T00:37:22;20.70;;;15.33;;
8413;SDS011;4244;48.684;9.028;2023-03-01T00:39:49;17.87;;;14.60;;
8413;SDS011;4244;48.684;9.028;2023-03-01T00:42:15;19.93;;;15.17;;
8413;SDS011;4244;48.684;9.028;2023-03-01T00:44:41;18.07;;;15.10;;
8413;SDS011;4244;48.684;9.028;2023-03-01T00:47:06;18.87;;;15.13;;
8413;SDS011;4244;48.684;9.028;2023-03-01T00:49:32;16.60;;;14.90;;
8413;SDS011;4244;48.684;9.028;2023-03-01T00:51:58;16.70;;;15.00;;
8413;SDS011;4244;48.684;9.028;2023-03-01T00:54:23;18.80;;;15.77;;
8413;SDS011;4244;48.684;9.028;2023-03-01T00:56:49;20.07;;;15.13;;
8413;SDS011;4244;48.684;9.028;2023-03-01T00:59:15;19.23;;;15.80;;
8413;SDS011;4244;48.684;9.028;2023-03-01T01:01:40;17.03;;;15.20;;
8413;SDS011;4244;48.684;9.028;2023-03-01T01:04:08;19.23;;;15.90;;
8413;SDS011;4244;48.684;9.028;2023-03-01T01:06:36;21.70;;;16.33;;
8413;SDS011;4244;48.684;9.028;2023-03-01T01:09:04;16.73;;;14.90;;
8413;SDS011;4244;48.684;9.028;2023-03-01T01:11:32;21.27;;;15.70;;
8413;SDS011;4244;48.684;9.028;2023-03-01T01:13:58;17.63;;;15.20;;
8413;SDS011;4244;48.684;9.028;2023-03-01T01:16:25;20.67;;;15.53;;
8413;SDS011;4244;48.684;9.028;2023-03-01T01:18:52;19.23;;;16.20;;
8413;SDS011;4244;48.684;9.028;2023-03-01T01:21:19;17.87;;;15.67;;
8413;SDS011;4244;48.684;9.028;2023-03-01T01:23:47;20.80;;;17.10;;
8413;SDS011;4244;48.684;9.028;2023-03-01T01:26:15;18.73;;;16.03;;
8413;SDS011;4244;48.684;9.028;2023-03-01T01:28:42;18.47;;;15.23;;
8413;SDS011;4244;48.684;9.028;2023-03-01T01:31:08;19.00;;;15.13;;
8413;SDS011;4244;48.684;9.028;2023-03-01T01:33:35;19.43;;;16.13;;
8413;SDS011;4244;48.684;9.028;2023-03-01T01:36:02;18.93;;;15.80;;
8413;SDS011;4244;48.684;9.028;2023-03-01T01:38:29;19.40;;;16.73;;
8413;SDS011;4244;48.684;9.028;2023-03-01T01:40:54;20.50;;;15.80;;
8413;SDS011;4244;48.684;9.028;2023-03-01T01:43:25;19.80;;;15.73;;
8413;SDS011;4244;48.684;9.028;2023-03-01T01:45:54;19.83;;;16.07;;
8413;SDS011;4244;48.684;9.028;2023-03-01T01:48:27;20.70;;;17.10;;
8413;SDS011;4244;48.684;9.028;2023-03-01T01:51:05;19.00;;;16.10;;
8413;SDS011;4244;48.684;9.028;2023-03-01T01:53:34;17.30;;;14.77;;
8413;SDS011;4244;48.684;9.028;2023-03-01T01:56:01;19.87;;;15.67;;
8413;SDS011;4244;48.684;9.028;2023-03-01T01:58:28;19.00;;;16.23;;
8413;SDS011;4244;48.684;9.028;2023-03-01T02:00:54;21.63;;;16.77;;
8413;SDS011;4244;48.684;9.028;2023-03-01T02:03:22;17.80;;;15.83;;
8413;SDS011;4244;48.684;9.028;2023-03-01T02:05:56;20.93;;;16.07;;
8413;SDS011;4244;48.684;9.028;2023-03-01T02:08:27;17.97;;;15.90;;
8413;SDS011;4244;48.684;9.028;2023-03-01T02:10:55;17.37;;;14.60;;
8413;SDS011;4244;48.684;9.028;2023-03-01T02:13:21;24.13;;;17.93;;
8413;SDS011;4244;48.684;9.028;2023-03-01T02:15:47;20.03;;;16.47;;
8413;SDS011;4244;48.684;9.028;2023-03-01T02:18:14;22.37;;;17.13;;
8413;SDS011;4244;48.684;9.028;2023-03-01T02:23:30;21.83;;;16.90;;
8413;SDS011;4244;48.684;9.028;2023-03-01T02:30:56;18.00;;;15.47;;
8413;SDS011;4244;48.684;9.028;2023-03-01T02:33:42;19.67;;;15.83;;
8413;SDS011;4244;48.684;9.028;2023-03-01T02:36:09;22.67;;;15.80;;
8413;SDS011;4244;48.684;9.028;2023-03-01T02:38:47;19.87;;;17.20;;
8413;SDS011;4244;48.684;9.028;2023-03-01T02:41:15;19.80;;;15.70;;
8413;SDS011;4244;48.684;9.028;2023-03-01T02:43:41;20.53;;;17.10;;
8413;SDS011;4244;48.684;9.028;2023-03-01T02:46:12;19.90;;;15.90;;
8413;SDS011;4244;48.684;9.028;2023-03-01T02:48:41;20.90;;;17.00;;
8413;SDS011;4244;48.684;9.028;2023-03-01T02:51:43;21.33;;;15.90;;
8413;SDS011;4244;48.684;9.028;2023-03-01T02:54:22;20.60;;;15.83;;
8413;SDS011;4244;48.684;9.028;2023-03-01T02:56:53;19.17;;;16.23;;
8413;SDS011;4244;48.684;9.028;2023-03-01T02:59:20;22.77;;;17.23;;
8413;SDS011;4244;48.684;9.028;2023-03-01T03:01:46;19.63;;;17.60;;
8413;SDS011;4244;48.684;9.028;2023-03-01T03:04:16;24.10;;;17.17;;
8413;SDS011;4244;48.684;9.028;2023-03-01T03:06:46;19.67;;;16.23;;
8413;SDS011;4244;48.684;9.028;2023-03-01T03:09:13;20.67;;;16.53;;
8413;SDS011;4244;48.684;9.028;2023-03-01T03:11:40;20.80;;;16.83;;
8413;SDS011;4244;48.684;9.028;2023-03-01T03:14:07;20.00;;;17.03;;
8413;SDS011;4244;48.684;9.028;2023-03-01T03:16:41;22.60;;;17.67;;
8413;SDS011;4244;48.684;9.028;2023-03-01T03:19:10;20.47;;;16.90;;
8413;SDS011;4244;48.684;9.028;2023-03-01T03:21:36;19.50;;;16.50;;
8413;SDS011;4244;48.684;9.028;2023-03-01T03:24:02;21.13;;;17.10;;
8413;SDS011;4244;48.684;9.028;2023-03-01T03:26:28;20.60;;;16.37;;
8413;SDS011;4244;48.684;9.028;2023-03-01T03:28:54;21.57;;;17.60;;
8413;SDS011;4244;48.684;9.028;2023-03-01T03:31:20;24.13;;;18.40;;
8413;SDS011;4244;48.684;9.028;2023-03-01T03:33:47;21.43;;;17.57;;
8413;SDS011;4244;48.684;9.028;2023-03-01T03:36:16;22.50;;;17.30;;
8413;SDS011;4244;48.684;9.028;2023-03-01T03:38:45;18.80;;;16.83;;
8413;SDS011;4244;48.684;9.028;2023-03-01T03:41:12;21.33;;;16.60;;
8413;SDS011;4244;48.684;9.028;2023-03-01T03:43:39;25.00;;;17.00;;
8413;SDS011;4244;48.684;9.028;2023-03-01T03:46:06;19.07;;;16.80;;
8413;SDS011;4244;48.684;9.028;2023-03-01T03:48:35;19.73;;;16.50;;
8413;SDS011;4244;48.684;9.028;2023-03-01T03:51:03;20.97;;;16.50;;
8413;SDS011;4244;48.684;9.028;2023-03-01T03:53:31;22.70;;;17.27;;
8413;SDS011;4244;48.684;9.028;2023-03-01T03:55:57;19.83;;;16.97;;
8413;SDS011;4244;48.684;9.028;2023-03-01T03:58:24;20.13;;;17.30;;
8413;SDS011;4244;48.684;9.028;2023-03-01T04:00:54;23.80;;;19.10;;
8413;SDS011;4244;48.684;9.028;2023-03-01T04:03:21;21.17;;;17.30;;
8413;SDS011;4244;48.684;9.028;2023-03-01T04:05:48;19.77;;;17.13;;
8413;SDS011;4244;48.684;9.028;2023-03-01T04:08:18;21.17;;;17.43;;
8413;SDS011;4244;48.684;9.028;2023-03-01T04:10:46;19.67;;;17.13;;
8413;SDS011;4244;48.684;9.028;2023-03-01T04:13:15;22.03;;;18.70;;
8413;SDS011;4244;48.684;9.028;2023-03-01T04:15:42;21.23;;;17.63;;
8413;SDS011;4244;48.684;9.028;2023-03-01T04:18:08;21.30;;;18.40;;
8413;SDS011;4244;48.684;9.028;2023-03-01T04:20:40;24.43;;;18.67;;
8413;SDS011;4244;48.684;9.028;2023-03-01T04:23:07;31.27;;;20.30;;
8413;SDS011;4244;48.684;9.028;2023-03-01T04:25:53;35.67;;;25.97;;
8413;SDS011;4244;48.684;9.028;2023-03-01T04:28:24;35.47;;;24.87;;
8413;SDS011;4244;48.684;9.028;2023-03-01T04:30:52;31.97;;;23.20;;
8413;SDS011;4244;48.684;9.028;2023-03-01T04:33:19;26.03;;;20.83;;
8413;SDS011;4244;48.684;9.028;2023-03-01T04:35:45;26.30;;;21.00;;
8413;SDS011;4244;48.684;9.028;2023-03-01T04:38:10;27.20;;;21.63;;
8413;SDS011;4244;48.684;9.028;2023-03-01T04:40:37;24.53;;;21.17;;
8413;SDS011;4244;48.684;9.028;2023-03-01T04:43:03;25.83;;;20.00;;
8413;SDS011;4244;48.684;9.028;2023-03-01T04:45:29;23.53;;;18.70;;
8413;SDS011;4244;48.684;9.028;2023-03-01T04:47:56;19.97;;;17.53;;
8413;SDS011;4244;48.684;9.028;2023-03-01T04:50:23;26.00;;;18.17;;
8413;SDS011;4244;48.684;9.028;2023-03-01T04:52:50;22.37;;;17.93;;
8413;SDS011;4244;48.684;9.028;2023-03-01T04:55:16;24.70;;;19.80;;
8413;SDS011;4244;48.684;9.028;2023-03-01T04:57:42;23.03;;;18.50;;
8413;SDS011;4244;48.684;9.028;2023-03-01T05:00:09;24.00;;;18.53;;
8413;SDS011;4244;48.684;9.028;2023-03-01T05:02:55;24.67;;;19.40;;
8413;SDS011;4244;48.684;9.028;2023-03-01T05:08:02;21.17;;;18.60;;
8413;SDS011;4244;48.684;9.028;2023-03-01T05:10:30;22.33;;;18.40;;
8413;SDS011;4244;48.684;9.028;2023-03-01T05:12:57;23.73;;;18.07;;
8413;SDS011;4244;48.684;9.028;2023-03-01T05:15:27;24.47;;;19.23;;
8413;SDS011;4244;48.684;9.028;2023-03-01T05:17:55;19.17;;;17.07;;
8413;SDS011;4244;48.684;9.028;2023-03-01T05:20:24;23.87;;;19.17;;
8413;SDS011;4244;48.684;9.028;2023-03-01T05:22:54;24.97;;;19.03;;
8413;SDS011;4244;48.684;9.028;2023-03-01T05:25:23;20.47;;;17.63;;
8413;SDS011;4244;48.684;9.028;2023-03-01T05:27:49;23.90;;;18.83;;
8413;SDS011;4244;48.684;9.028;2023-03-01T05:30:15;23.20;;;19.60;;
8413;SDS011;4244;48.684;9.028;2023-03-01T05:32:46;21.30;;;18.40;;
8413;SDS011;4244;48.684;9.028;2023-03-01T05:35:14;19.73;;;17.57;;
8413;SDS011;4244;48.684;9.028;2023-03-01T05:37:45;26.17;;;19.67;;
8413;SDS011;4244;48.684;9.028;2023-03-01T05:40:13;24.43;;;18.47;;
8413;SDS011;4244;48.684;9.028;2023-03-01T05:42:42;23.03;;;18.60;;
8413;SDS011;4244;48.684;9.028;2023-03-01T05:45:12;21.90;;;18.03;;
8413;SDS011;4244;48.684;9.028;2023-03-01T05:47:39;23.33;;;18.97;;
8413;SDS011;4244;48.684;9.028;2023-03-01T05:50:08;23.07;;;19.13;;
8413;SDS011;4244;48.684;9.028;2023-03-01T05:52:39;24.57;;;19.50;;
8413;SDS011;4244;48.684;9.028;2023-03-01T05:55:05;24.37;;;18.33;;
8413;SDS011;4244;48.684;9.028;2023-03-01T05:57:31;25.33;;;18.60;;
8413;SDS011;4244;48.684;9.028;2023-03-01T05:59:56;22.70;;;19.33;;
8413;SDS011;4244;48.684;9.028;2023-03-01T06:02:22;24.77;;;19.23;;
8413;SDS011;4244;48.684;9.028;2023-03-01T06:04:48;23.10;;;18.90;;
8413;SDS011;4244;48.684;9.028;2023-03-01T06:07:13;22.00;;;18.93;;
8413;SDS011;4244;48.684;9.028;2023-03-01T06:12:34;23.73;;;18.93;;
8413;SDS011;4244;48.684;9.028;2023-03-01T06:15:06;23.60;;;18.33;;
8413;SDS011;4244;48.684;9.028;2023-03-01T06:17:36;21.73;;;19.13;;
8413;SDS011;4244;48.684;9.028;2023-03-01T06:20:07;22.27;;;19.30;;
8413;SDS011;4244;48.684;9.028;2023-03-01T06:22:35;24.83;;;20.13;;
8413;SDS011;4244;48.684;9.028;2023-03-01T06:25:01;21.93;;;19.30;;
8413;SDS011;4244;48.684;9.028;2023-03-01T06:27:27;22.87;;;19.50;;
8413;SDS011;4244;48.684;9.028;2023-03-01T06:29:53;22.93;;;18.30;;
8413;SDS011;4244;48.684;9.028;2023-03-01T06:32:18;22.00;;;18.70;;
8413;SDS011;4244;48.684;9.028;2023-03-01T06:34:44;24.37;;;18.57;;
8413;SDS011;4244;48.684;9.028;2023-03-01T06:37:10;26.53;;;19.63;;
8413;SDS011;4244;48.684;9.028;2023-03-01T06:39:36;24.47;;;18.60;;
8413;SDS011;4244;48.684;9.028;2023-03-01T06:42:01;26.30;;;19.10;;
8413;SDS011;4244;48.684;9.028;2023-03-01T06:44:27;24.63;;;19.87;;
8413;SDS011;4244;48.684;9.028;2023-03-01T06:46:53;25.50;;;19.40;;
8413;SDS011;4244;48.684;9.028;2023-03-01T06:49:19;25.17;;;20.10;;
8413;SDS011;4244;48.684;9.028;2023-03-01T06:51:45;24.60;;;18.90;;
8413;SDS011;4244;48.684;9.028;2023-03-01T06:54:11;25.67;;;18.77;;
8413;SDS011;4244;48.684;9.028;2023-03-01T06:56:37;24.30;;;18.90;;
8413;SDS011;4244;48.684;9.028;2023-03-01T06:59:03;23.57;;;19.67;;
8413;SDS011;4244;48.684;9.028;2023-03-01T07:01:29;22.00;;;18.03;;
8413;SDS011;4244;48.684;9.028;2023-03-01T07:03:55;21.97;;;18.97;;
8413;SDS011;4244;48.684;9.028;2023-03-01T07:06:21;24.20;;;20.40;;
8413;SDS011;4244;48.684;9.028;2023-03-01T07:08:47;24.70;;;18.13;;
8413;SDS011;4244;48.684;9.028;2023-03-01T07:11:13;21.67;;;18.67;;
8413;SDS011;4244;48.684;9.028;2023-03-01T07:13:39;23.60;;;19.13;;
8413;SDS011;4244;48.684;9.028;2023-03-01T07:16:05;22.33;;;18.50;;
8413;SDS011;4244;48.684;9.028;2023-03-01T07:18:30;20.60;;;17.47;;
8413;SDS011;4244;48.684;9.028;2023-03-01T07:20:56;22.60;;;19.33;;
8413;SDS011;4244;48.684;9.028;2023-03-01T07:23:22;23.07;;;18.80;;
8413;SDS011;4244;48.684;9.028;2023-03-01T07:25:51;22.67;;;18.47;;
8413;SDS011;4244;48.684;9.028;2023-03-01T07:28:18;20.23;;;17.93;;
8413;SDS011;4244;48.684;9.028;2023-03-01T07:30:43;22.83;;;18.47;;
8413;SDS011;4244;48.684;9.028;2023-03-01T07:33:09;24.73;;;19.70;;
8413;SDS011;4244;48.684;9.028;2023-03-01T07:35:35;20.37;;;18.17;;
8413;SDS011;4244;48.684;9.028;2023-03-01T07:38:01;22.10;;;19.73;;
8413;SDS011;4244;48.684;9.028;2023-03-01T07:40:26;20.93;;;17.80;;
8413;SDS011;4244;48.684;9.028;2023-03-01T07:42:55;21.50;;;19.33;;
8413;SDS011;4244;48.684;9.028;2023-03-01T07:45:22;20.93;;;18.40;;
8413;SDS011;4244;48.684;9.028;2023-03-01T07:47:50;20.67;;;18.47;;
8413;SDS011;4244;48.684;9.028;2023-03-01T07:50:16;20.87;;;18.67;;
8413;SDS011;4244;48.684;9.028;2023-03-01T07:52:44;22.00;;;19.77;;
8413;SDS011;4244;48.684;9.028;2023-03-01T07:55:10;22.43;;;20.13;;
8413;SDS011;4244;48.684;9.028;2023-03-01T07:57:36;21.70;;;18.70;;
8413;SDS011;4244;48.684;9.028;2023-03-01T08:00:02;20.20;;;18.10;;
8413;SDS011;4244;48.684;9.028;2023-03-01T08:02:28;20.47;;;18.33;;
8413;SDS011;4244;48.684;9.028;2023-03-01T08:04:54;20.93;;;18.70;;
8413;SDS011;4244;48.684;9.028;2023-03-01T08:07:19;21.00;;;18.80;;
8413;SDS011;4244;48.684;9.028;2023-03-01T08:09:45;22.97;;;18.67;;
8413;SDS011;4244;48.684;9.028;2023-03-01T08:12:11;21.07;;;18.80;;
8413;SDS011;4244;48.684;9.028;2023-03-01T08:14:36;19.93;;;17.97;;
8413;SDS011;4244;48.684;9.028;2023-03-01T08:17:02;19.40;;;17.43;;
8413;SDS011;4244;48.684;9.028;2023-03-01T08:19:28;19.57;;;17.67;;
8413;SDS011;4244;48.684;9.028;2023-03-01T08:21:54;20.60;;;18.60;;
8413;SDS011;4244;48.684;9.028;2023-03-01T08:24:20;18.27;;;16.57;;
8413;SDS011;4244;48.684;9.028;2023-03-01T08:26:45;20.33;;;18.10;;
8413;SDS011;4244;48.684;9.028;2023-03-01T08:29:11;19.43;;;17.47;;
8413;SDS011;4244;48.684;9.028;2023-03-01T08:31:38;19.70;;;17.80;;
8413;SDS011;4244;48.684;9.028;2023-03-01T08:34:06;19.47;;;17.43;;
8413;SDS011;4244;48.684;9.028;2023-03-01T08:36:35;18.83;;;16.93;;
8413;SDS011;4244;48.684;9.028;2023-03-01T08:39:08;23.87;;;19.17;;
8413;SDS011;4244;48.684;9.028;2023-03-01T08:41:35;21.10;;;18.87;;
8413;SDS011;4244;48.684;9.028;2023-03-01T08:44:01;19.83;;;18.03;;
8413;SDS011;4244;48.684;9.028;2023-03-01T08:46:28;18.53;;;16.60;;
8413;SDS011;4244;48.684;9.028;2023-03-01T08:48:55;20.10;;;18.10;;
8413;SDS011;4244;48.684;9.028;2023-03-01T08:51:21;19.80;;;17.80;;
8413;SDS011;4244;48.684;9.028;2023-03-01T08:53:47;20.10;;;18.20;;
8413;SDS011;4244;48.684;9.028;2023-03-01T08:56:13;19.27;;;17.40;;
8413;SDS011;4244;48.684;9.028;2023-03-01T08:58:39;18.17;;;16.47;;
8413;SDS011;4244;48.684;9.028;2023-03-01T09:01:09;19.67;;;17.80;;
8413;SDS011;4244;48.684;9.028;2023-03-01T09:03:36;19.57;;;17.87;;
8413;SDS011;4244;48.684;9.028;2023-03-01T09:06:02;20.53;;;18.73;;
8413;SDS011;4244;48.684;9.028;2023-03-01T09:08:29;19.60;;;17.80;;
8413;SDS011;4244;48.684;9.028;2023-03-01T09:10:55;14.60;;;13.20;;
8413;SDS011;4244;48.684;9.028;2023-03-01T09:13:21;15.10;;;13.60;;
8413;SDS011;4244;48.684;9.028;2023-03-01T09:15:49;13.90;;;12.50;;
8413;SDS011;4244;48.684;9.028;2023-03-01T09:18:16;12.83;;;11.73;;
8413;SDS011;4244;48.684;9.028;2023-03-01T09:20:41;10.00;;;9.10;;
8413;SDS011;4244;48.684;9.028;2023-03-01T09:23:07;11.93;;;10.70;;
8413;SDS011;4244;48.684;9.028;2023-03-01T09:25:34;11.20;;;10.10;;
8413;SDS011;4244;48.684;9.028;2023-03-01T09:28:00;14.33;;;12.93;;
8413;SDS011;4244;48.684;9.028;2023-03-01T09:30:26;12.40;;;11.30;;
8413;SDS011;4244;48.684;9.028;2023-03-01T09:32:51;14.17;;;12.97;;
8413;SDS011;4244;48.684;9.028;2023-03-01T09:35:17;14.33;;;13.10;;
8413;SDS011;4244;48.684;9.028;2023-03-01T09:37:45;14.80;;;13.20;;
8413;SDS011;4244;48.684;9.028;2023-03-01T09:40:16;14.57;;;13.30;;
8413;SDS011;4244;48.684;9.028;2023-03-01T09:42:52;14.17;;;12.93;;
8413;SDS011;4244;48.684;9.028;2023-03-01T09:45:23;13.67;;;12.47;;
8413;SDS011;4244;48.684;9.028;2023-03-01T09:47:50;15.03;;;13.73;;
8413;SDS011;4244;48.684;9.028;2023-03-01T09:50:17;15.57;;;14.30;;
8413;SDS011;4244;48.684;9.028;2023-03-01T09:55:17;16.63;;;15.03;;
8413;SDS011;4244;48.684;9.028;2023-03-01T09:57:52;16.03;;;14.63;;
8413;SDS011;4244;48.684;9.028;2023-03-01T10:00:26;16.93;;;15.53;;
8413;SDS011;4244;48.684;9.028;2023-03-01T10:08:30;16.30;;;14.90;;
8413;SDS011;4244;48.684;9.028;2023-03-01T10:11:14;18.07;;;16.60;;
8413;SDS011;4244;48.684;9.028;2023-03-01T10:19:24;16.63;;;15.23;;
8413;SDS011;4244;48.684;9.028;2023-03-01T10:21:56;17.13;;;15.70;;
8413;SDS011;4244;48.684;9.028;2023-03-01T10:24:28;16.37;;;15.07;;
8413;SDS011;4244;48.684;9.028;2023-03-01T10:26:58;16.50;;;15.00;;
8413;SDS011;4244;48.684;9.028;2023-03-01T10:29:37;16.43;;;14.93;;
8413;SDS011;4244;48.684;9.028;2023-03-01T10:32:08;16.13;;;14.77;;
8413;SDS011;4244;48.684;9.028;2023-03-01T10:34:35;17.13;;;15.83;;
8413;SDS011;4244;48.684;9.028;2023-03-01T10:37:08;16.30;;;14.97;;
8413;SDS011;4244;48.684;9.028;2023-03-01T10:39:37;16.97;;;15.67;;
8413;SDS011;4244;48.684;9.028;2023-03-01T10:42:45;16.23;;;15.00;;
8413;SDS011;4244;48.684;9.028;2023-03-01T10:45:17;17.93;;;16.43;;
8413;SDS011;4244;48.684;9.028;2023-03-01T10:47:57;17.40;;;16.07;;
8413;SDS011;4244;48.684;9.028;2023-03-01T10:50:29;17.30;;;15.90;;
8413;SDS011;4244;48.684;9.028;2023-03-01T10:53:02;18.80;;;17.20;;
8413;SDS011;4244;48.684;9.028;2023-03-01T10:55:38;15.20;;;14.03;;
8413;SDS011;4244;48.684;9.028;2023-03-01T10:58:20;16.00;;;14.70;;
8413;SDS011;4244;48.684;9.028;2023-03-01T11:00:57;17.33;;;16.03;;
8413;SDS011;4244;48.684;9.028;2023-03-01T11:03:37;15.13;;;14.00;;
8413;SDS011;4244;48.684;9.028;2023-03-01T11:13:38;17.40;;;16.10;;
8413;SDS011;4244;48.684;9.028;2023-03-01T11:21:35;16.63;;;15.20;;
8413;SDS011;4244;48.684;9.028;2023-03-01T11:24:04;16.33;;;15.03;;
8413;SDS011;4244;48.684;9.028;2023-03-01T11:26:31;15.57;;;14.27;;
8413;SDS011;4244;48.684;9.028;2023-03-01T11:29:02;16.30;;;15.00;;
8413;SDS011;4244;48.684;9.028;2023-03-01T11:31:30;15.00;;;13.90;;
8413;SDS011;4244;48.684;9.028;2023-03-01T11:33:57;17.90;;;16.47;;
8413;SDS011;4244;48.684;9.028;2023-03-01T11:36:32;15.90;;;14.50;;
8413;SDS011;4244;48.684;9.028;2023-03-01T11:39:47;15.40;;;14.20;;
8413;SDS011;4244;48.684;9.028;2023-03-01T11:42:11;15.67;;;14.27;;
8413;SDS011;4244;48.684;9.028;2023-03-01T11:44:59;13.90;;;12.80;;
8413;SDS011;4244;48.684;9.028;2023-03-01T11:50:00;14.53;;;13.33;;
8413;SDS011;4244;48.684;9.028;2023-03-01T11:55:39;14.43;;;13.13;;
8413;SDS011;4244;48.684;9.028;2023-03-01T11:58:21;14.80;;;13.70;;
8413;SDS011;4244;48.684;9.028;2023-03-01T12:01:00;13.37;;;12.37;;
8413;SDS011;4244;48.684;9.028;2023-03-01T12:17:16;14.43;;;13.33;;
8413;SDS011;4244;48.684;9.028;2023-03-01T12:23:13;13.87;;;12.87;;
8413;SDS011;4244;48.684;9.028;2023-03-01T12:28:35;15.40;;;14.10;;
8413;SDS011;4244;48.684;9.028;2023-03-01T12:45:50;15.17;;;13.90;;
8413;SDS011;4244;48.684;9.028;2023-03-01T12:51:16;13.07;;;12.07;;
8413;SDS011;4244;48.684;9.028;2023-03-01T12:53:49;14.13;;;12.93;;
8413;SDS011;4244;48.684;9.028;2023-03-01T12:56:19;13.10;;;12.10;;
8413;SDS011;4244;48.684;9.028;2023-03-01T13:07:44;13.23;;;12.23;;
8413;SDS011;4244;48.684;9.028;2023-03-01T13:10:06;12.00;;;11.10;;
8413;SDS011;4244;48.684;9.028;2023-03-01T13:12:47;12.73;;;11.53;;
8413;SDS011;4244;48.684;9.028;2023-03-01T13:17:51;11.97;;;11.07;;
8413;SDS011;4244;48.684;9.028;2023-03-01T13:20:30;13.77;;;12.67;;
8413;SDS011;4244;48.684;9.028;2023-03-01T13:23:01;13.00;;;11.90;;
8413;SDS011;4244;48.684;9.028;2023-03-01T13:33:55;10.83;;;9.83;;
8413;SDS011;4244;48.684;9.028;2023-03-01T13:38:58;11.80;;;11.00;;
8413;SDS011;4244;48.684;9.028;2023-03-01T13:44:12;12.03;;;10.90;;
8413;SDS011;4244;48.684;9.028;2023-03-01T13:46:55;12.40;;;9.83;;
8413;SDS011;4244;48.684;9.028;2023-03-01T13:49:25;13.10;;;12.00;;
8413;SDS011;4244;48.684;9.028;2023-03-01T13:51:53;11.87;;;10.67;;
8413;SDS011;4244;48.684;9.028;2023-03-01T13:54:26;13.53;;;12.33;;
8413;SDS011;4244;48.684;9.028;2023-03-01T13:56:55;10.70;;;9.90;;
8413;SDS011;4244;48.684;9.028;2023-03-01T13:59:21;11.77;;;10.87;;
8413;SDS011;4244;48.684;9.028;2023-03-01T14:01:54;12.03;;;11.17;;
8413;SDS011;4244;48.684;9.028;2023-03-01T14:04:22;10.90;;;9.87;;
8413;SDS011;4244;48.684;9.028;2023-03-01T14:06:50;12.33;;;10.50;;
8413;SDS011;4244;48.684;9.028;2023-03-01T14:09:23;14.00;;;11.20;;
8413;SDS011;4244;48.684;9.028;2023-03-01T14:20:25;12.97;;;11.73;;
8413;SDS011;4244;48.684;9.028;2023-03-01T14:22:57;12.00;;;10.23;;
8413;SDS011;4244;48.684;9.028;2023-03-01T14:25:31;11.40;;;9.80;;
8413;SDS011;4244;48.684;9.028;2023-03-01T14:30:56;12.73;;;10.43;;
8413;SDS011;4244;48.684;9.028;2023-03-01T14:36:04;12.10;;;11.10;;
8413;SDS011;4244;48.684;9.028;2023-03-01T14:38:32;12.70;;;11.70;;
8413;SDS011;4244;48.684;9.028;2023-03-01T14:41:03;12.00;;;10.80;;
8413;SDS011;4244;48.684;9.028;2023-03-01T14:43:33;12.47;;;11.53;;
8413;SDS011;4244;48.684;9.028;2023-03-01T14:45:59;12.57;;;11.27;;
8413;SDS011;4244;48.684;9.028;2023-03-01T14:48:26;13.43;;;12.10;;
8413;SDS011;4244;48.684;9.028;2023-03-01T14:50:52;11.13;;;10.33;;
8413;SDS011;4244;48.684;9.028;2023-03-01T14:53:22;13.17;;;11.90;;
8413;SDS011;4244;48.684;9.028;2023-03-01T14:55:54;11.60;;;10.63;;
8413;SDS011;4244;48.684;9.028;2023-03-01T14:58:23;13.73;;;12.73;;
8413;SDS011;4244;48.684;9.028;2023-03-01T15:06:02;15.40;;;13.90;;
8413;SDS011;4244;48.684;9.028;2023-03-01T15:08:29;13.63;;;12.47;;
8413;SDS011;4244;48.684;9.028;2023-03-01T15:13:39;16.30;;;14.73;;
8413;SDS011;4244;48.684;9.028;2023-03-01T15:16:15;13.80;;;12.60;;
8413;SDS011;4244;48.684;9.028;2023-03-01T15:18:56;11.00;;;10.10;;
8413;SDS011;4244;48.684;9.028;2023-03-01T15:21:31;15.60;;;14.40;;
8413;SDS011;4244;48.684;9.028;2023-03-01T15:24:00;15.17;;;13.93;;
8413;SDS011;4244;48.684;9.028;2023-03-01T15:26:45;14.67;;;13.57;;
8413;SDS011;4244;48.684;9.028;2023-03-01T15:29:23;15.60;;;14.30;;
8413;SDS011;4244;48.684;9.028;2023-03-01T15:32:05;14.77;;;13.47;;
8413;SDS011;4244;48.684;9.028;2023-03-01T15:34:45;14.60;;;13.40;;
8413;SDS011;4244;48.684;9.028;2023-03-01T15:37:36;16.80;;;15.40;;
8413;SDS011;4244;48.684;9.028;2023-03-01T15:42:56;16.77;;;15.40;;
8413;SDS011;4244;48.684;9.028;2023-03-01T15:45:30;15.50;;;14.30;;
8413;SDS011;4244;48.684;9.028;2023-03-01T15:48:02;18.30;;;16.77;;
8413;SDS011;4244;48.684;9.028;2023-03-01T15:50:31;18.67;;;17.27;;
8413;SDS011;4244;48.684;9.028;2023-03-01T15:53:01;18.93;;;17.33;;
8413;SDS011;4244;48.684;9.028;2023-03-01T15:55:32;18.67;;;17.07;;
8413;SDS011;4244;48.684;9.028;2023-03-01T15:57:59;17.23;;;15.93;;
8413;SDS011;4244;48.684;9.028;2023-03-01T16:00:37;17.00;;;15.50;;
8413;SDS011;4244;48.684;9.028;2023-03-01T16:03:04;18.50;;;16.93;;
8413;SDS011;4244;48.684;9.028;2023-03-01T16:05:31;18.63;;;17.03;;
8413;SDS011;4244;48.684;9.028;2023-03-01T16:07:58;18.93;;;17.23;;
8413;SDS011;4244;48.684;9.028;2023-03-01T16:10:23;19.33;;;17.57;;
8413;SDS011;4244;48.684;9.028;2023-03-01T16:12:50;20.70;;;18.77;;
8413;SDS011;4244;48.684;9.028;2023-03-01T16:15:21;19.93;;;18.23;;
8413;SDS011;4244;48.684;9.028;2023-03-01T16:17:52;19.30;;;17.70;;
8413;SDS011;4244;48.684;9.028;2023-03-01T16:20:19;18.50;;;16.90;;
8413;SDS011;4244;48.684;9.028;2023-03-01T16:22:45;21.17;;;19.37;;
8413;SDS011;4244;48.684;9.028;2023-03-01T16:25:15;19.67;;;17.90;;
8413;SDS011;4244;48.684;9.028;2023-03-01T16:27:43;19.70;;;17.90;;
8413;SDS011;4244;48.684;9.028;2023-03-01T16:30:10;19.20;;;17.50;;
8413;SDS011;4244;48.684;9.028;2023-03-01T16:32:37;17.53;;;16.00;;
8413;SDS011;4244;48.684;9.028;2023-03-01T16:35:04;20.10;;;18.23;;
8413;SDS011;4244;48.684;9.028;2023-03-01T16:37:32;18.07;;;16.47;;
8413;SDS011;4244;48.684;9.028;2023-03-01T16:39:58;18.67;;;17.07;;
8413;SDS011;4244;48.684;9.028;2023-03-01T16:42:24;18.57;;;16.87;;
8413;SDS011;4244;48.684;9.028;2023-03-01T16:44:56;19.67;;;17.70;;
8413;SDS011;4244;48.684;9.028;2023-03-01T16:47:22;19.90;;;17.90;;
8413;SDS011;4244;48.684;9.028;2023-03-01T16:49:51;19.33;;;17.57;;
8413;SDS011;4244;48.684;9.028;2023-03-01T16:52:17;22.00;;;19.83;;
8413;SDS011;4244;48.684;9.028;2023-03-01T16:54:43;18.93;;;17.13;;
8413;SDS011;4244;48.684;9.028;2023-03-01T16:57:08;19.80;;;17.90;;
8413;SDS011;4244;48.684;9.028;2023-03-01T16:59:34;19.50;;;17.73;;
8413;SDS011;4244;48.684;9.028;2023-03-01T17:02:01;18.27;;;16.57;;
8413;SDS011;4244;48.684;9.028;2023-03-01T17:04:27;18.57;;;16.83;;
8413;SDS011;4244;48.684;9.028;2023-03-01T17:06:52;18.87;;;16.97;;
8413;SDS011;4244;48.684;9.028;2023-03-01T17:09:18;18.57;;;16.77;;
8413;SDS011;4244;48.684;9.028;2023-03-01T17:11:46;18.60;;;16.90;;